createdAt,value
2022-10-31T00:02:12.244Z,100561.31
2022-10-31T00:04:41.451Z,100683.97
2022-10-31T00:07:12.095Z,100580.06
2022-10-31T00:09:41.311Z,100531.84
2022-10-31T00:12:10.520Z,100529.63
2022-10-31T00:14:39.805Z,100644.44
2022-10-31T00:17:08.879Z,100620.84
2022-10-31T00:19:38.002Z,100626.16
2022-10-31T00:22:07.138Z,100554.91
2022-10-31T00:24:37.763Z,100621.97
2022-10-31T00:27:06.889Z,100511.59
2022-10-31T00:29:36.070Z,100534.28
2022-10-31T00:32:05.292Z,100586.47
2022-10-31T00:34:34.391Z,100510.03
2022-10-31T00:37:03.584Z,100661.75
2022-10-31T00:39:32.766Z,100530.38
2022-10-31T00:42:03.425Z,100650.72
2022-10-31T00:44:32.626Z,100582.34
2022-10-31T00:47:01.768Z,100611.53
2022-10-31T00:49:30.966Z,100567.78
2022-10-31T00:52:00.137Z,100563.13
2022-10-31T00:54:29.449Z,100605.06
2022-10-31T00:56:58.614Z,100607.81
2022-10-31T00:59:29.362Z,100610.19
2022-10-31T01:01:58.652Z,100603.38
2022-10-31T01:04:27.899Z,100562.38
2022-10-31T01:06:57.115Z,100675.19
2022-10-31T01:09:26.265Z,100548.72
2022-10-31T01:11:55.493Z,100606.34
2022-10-31T01:14:24.645Z,100660.94
2022-10-31T01:16:55.363Z,100618.94
2022-10-31T01:19:24.533Z,100564.34
2022-10-31T01:21:56.625Z,100585.25
2022-10-31T01:24:25.932Z,100490.34
2022-10-31T01:26:55.078Z,100646.47
2022-10-31T01:29:24.345Z,100587.72
2022-10-31T01:31:55.084Z,100653.47
2022-10-31T01:34:24.325Z,100530.97
2022-10-31T01:36:53.756Z,100660.03
2022-10-31T01:39:23.216Z,100679.50
2022-10-31T01:41:55.442Z,100683.34
2022-10-31T01:45:00.058Z,100666.72
2022-10-31T01:47:41.250Z,100622.47
2022-10-31T01:50:18.333Z,100678.81
2022-10-31T01:52:50.814Z,100551.53
2022-10-31T01:55:26.393Z,100518.38
2022-10-31T01:58:02.941Z,100670.94
2022-10-31T02:00:32.630Z,100600.72
2022-10-31T02:03:03.713Z,100648.84
2022-10-31T02:05:33.839Z,100496.75
2022-10-31T02:08:07.727Z,100446.88
2022-10-31T02:10:39.809Z,100541.34
2022-10-31T02:13:11.049Z,100464.66
2022-10-31T02:15:41.393Z,100495.78
2022-10-31T02:18:12.683Z,100500.19
2022-10-31T02:20:51.164Z,100523.84
2022-10-31T02:24:01.474Z,100658.94
2022-10-31T02:26:50.500Z,100492.22
2022-10-31T02:29:57.269Z,100531.97
2022-10-31T02:32:33.667Z,100504.28
2022-10-31T02:35:12.047Z,100548.09
2022-10-31T02:37:48.280Z,100482.41
2022-10-31T02:40:24.814Z,100557.25
2022-10-31T02:43:01.559Z,100623.53
2022-10-31T02:45:34.319Z,100615.94
2022-10-31T02:48:11.139Z,100495.50
2022-10-31T02:50:45.282Z,100567.75
2022-10-31T02:53:17.461Z,100593.53
2022-10-31T02:55:54.046Z,100650.56
2022-10-31T02:58:25.675Z,100616.44
2022-10-31T03:01:12.649Z,100605.59
2022-10-31T03:03:55.095Z,100617.09
2022-10-31T03:06:31.864Z,100599.75
2022-10-31T03:09:10.659Z,100528.38
2022-10-31T03:11:47.703Z,100625.25
2022-10-31T03:14:24.975Z,100451.19
2022-10-31T03:16:56.040Z,100643.28
2022-10-31T03:19:32.694Z,100623.19
2022-10-31T03:22:07.553Z,100639.19
2022-10-31T03:24:41.300Z,100592.09
2022-10-31T03:27:14.595Z,100622.53
2022-10-31T03:29:46.753Z,100538.75
2022-10-31T03:32:20.864Z,100631.44
2022-10-31T03:34:54.010Z,100596.00
2022-10-31T03:37:25.002Z,100560.97
2022-10-31T03:39:56.474Z,100614.47
2022-10-31T03:42:28.828Z,100664.44
2022-10-31T03:45:02.481Z,100602.78
2022-10-31T03:47:32.231Z,100633.84
2022-10-31T03:50:03.028Z,100597.09
2022-10-31T03:52:38.406Z,100583.53
2022-10-31T03:55:12.488Z,100590.69
2022-10-31T03:57:46.891Z,100596.13
2022-10-31T04:00:17.854Z,100620.25
2022-10-31T04:02:53.237Z,100500.00
2022-10-31T04:05:24.534Z,100564.69
2022-10-31T04:07:57.641Z,100574.34
2022-10-31T04:10:32.018Z,100579.53
2022-10-31T04:13:08.669Z,100577.69
2022-10-31T04:15:39.958Z,100539.66
2022-10-31T04:18:10.566Z,100526.59
2022-10-31T04:20:43.179Z,100640.22
2022-10-31T04:23:21.200Z,100632.75
2022-10-31T04:25:50.372Z,100539.78
2022-10-31T04:30:48.649Z,100617.25
2022-10-31T04:33:17.825Z,100574.00
2022-10-31T04:35:48.795Z,100521.31
2022-10-31T04:38:17.984Z,100601.03
2022-10-31T04:40:48.385Z,100513.38
2022-10-31T04:43:17.614Z,100593.84
2022-10-31T04:45:46.861Z,100557.53
2022-10-31T04:48:16.184Z,100495.16
2022-10-31T04:50:45.404Z,100573.56
2022-10-31T04:53:16.085Z,100518.13
2022-10-31T04:55:45.220Z,100618.34
2022-10-31T04:58:14.428Z,100534.00
2022-10-31T05:00:43.691Z,100506.31
2022-10-31T05:03:12.944Z,100553.34
2022-10-31T05:05:42.124Z,100612.53
2022-10-31T05:08:11.320Z,100502.06
2022-10-31T05:10:42.010Z,100535.09
2022-10-31T05:13:11.578Z,100586.38
2022-10-31T05:15:40.803Z,100601.16
2022-10-31T05:18:10.166Z,100595.88
2022-10-31T05:20:39.224Z,100601.03
2022-10-31T05:23:08.300Z,100575.81
2022-10-31T05:25:37.497Z,100547.03
2022-10-31T05:28:08.228Z,100452.34
2022-10-31T05:30:37.586Z,100581.94
2022-10-31T05:33:06.737Z,100594.22
2022-10-31T05:35:36.170Z,100588.19
2022-10-31T05:38:07.777Z,100589.13
2022-10-31T05:40:36.884Z,100572.66
2022-10-31T05:43:07.520Z,100570.09
2022-10-31T05:45:36.622Z,100587.53
2022-10-31T05:48:06.243Z,100583.22
2022-10-31T05:50:35.712Z,100568.44
2022-10-31T05:53:06.662Z,100576.31
2022-10-31T05:55:36.179Z,100577.16
2022-10-31T05:58:09.699Z,100557.19
2022-10-31T06:00:38.902Z,100568.47
2022-10-31T06:05:42.140Z,100582.34
2022-10-31T06:08:14.376Z,100579.75
2022-10-31T06:10:45.358Z,100573.63
2022-10-31T06:13:15.983Z,100551.00
2022-10-31T06:15:48.265Z,100573.53
2022-10-31T06:18:19.634Z,100565.63
2022-10-31T06:20:48.737Z,100562.09
2022-10-31T06:23:17.769Z,100573.34
2022-10-31T06:25:50.896Z,100568.97
2022-10-31T06:28:21.572Z,100562.88
2022-10-31T06:30:52.603Z,100560.22
2022-10-31T06:33:21.612Z,100531.59
2022-10-31T06:35:50.972Z,100545.44
2022-10-31T06:38:20.057Z,100558.41
2022-10-31T06:40:49.124Z,100554.03
2022-10-31T06:43:18.160Z,100560.13
2022-10-31T06:45:48.798Z,100557.53
2022-10-31T06:48:18.611Z,100548.03
2022-10-31T06:50:47.979Z,100568.09
2022-10-31T06:53:17.477Z,100549.00
2022-10-31T06:55:46.559Z,100475.28
2022-10-31T06:58:15.819Z,100562.06
2022-10-31T07:00:44.947Z,100534.25
2022-10-31T07:03:16.886Z,100519.44
2022-10-31T07:05:46.190Z,100537.59
2022-10-31T07:08:19.157Z,100512.31
2022-10-31T07:10:55.014Z,100551.19
2022-10-31T07:13:26.983Z,100518.13
2022-10-31T07:15:57.810Z,100552.72
2022-10-31T07:18:28.446Z,100549.13
2022-10-31T07:20:59.863Z,100504.78
2022-10-31T07:23:29.166Z,100509.94
2022-10-31T07:25:59.843Z,100544.56
2022-10-31T07:28:33.071Z,100546.28
2022-10-31T07:31:04.241Z,100508.91
2022-10-31T07:33:34.908Z,100543.59
2022-10-31T07:36:04.000Z,100482.84
2022-10-31T07:38:33.200Z,100507.06
2022-10-31T07:41:02.448Z,100542.69
2022-10-31T07:43:31.554Z,100487.16
2022-10-31T07:46:00.547Z,100529.69
2022-10-31T07:48:29.624Z,100536.66
2022-10-31T07:51:00.221Z,100541.81
2022-10-31T07:53:29.319Z,100542.72
2022-10-31T07:55:58.372Z,100542.78
2022-10-31T07:58:27.523Z,100529.00
2022-10-31T08:00:56.716Z,100522.88
2022-10-31T08:03:25.826Z,100549.81
2022-10-31T08:05:55.007Z,100537.66
2022-10-31T08:08:26.098Z,100550.72
2022-10-31T08:10:55.249Z,100552.47
2022-10-31T08:13:24.529Z,100544.66
2022-10-31T08:15:58.233Z,100556.81
2022-10-31T08:18:27.483Z,100528.19
2022-10-31T08:20:56.829Z,100535.16
2022-10-31T08:23:27.400Z,100548.97
2022-10-31T08:25:56.519Z,100558.56
2022-10-31T08:28:25.607Z,100563.81
2022-10-31T08:30:54.700Z,100556.88
2022-10-31T08:33:23.798Z,100533.47
2022-10-31T08:35:52.970Z,100537.00
2022-10-31T08:38:22.080Z,100554.34
2022-10-31T08:40:53.052Z,100564.88
2022-10-31T08:43:24.279Z,100510.28
2022-10-31T08:45:56.352Z,100572.00
2022-10-31T08:48:33.491Z,100520.88
2022-10-31T08:51:04.424Z,100511.41
2022-10-31T08:53:33.578Z,100580.84
2022-10-31T08:56:07.085Z,100577.38
2022-10-31T08:58:40.122Z,100584.34
2022-10-31T09:01:11.099Z,100574.84
2022-10-31T09:03:40.231Z,100553.16
2022-10-31T09:06:10.434Z,100567.00
2022-10-31T09:08:39.861Z,100601.81
2022-10-31T09:11:10.477Z,100598.34
2022-10-31T09:13:41.278Z,100586.19
2022-10-31T09:16:10.790Z,100573.16
2022-10-31T09:18:40.007Z,100590.53
2022-10-31T09:21:10.234Z,100601.84
2022-10-31T09:23:39.318Z,100593.16
2022-10-31T09:26:09.880Z,100595.78
2022-10-31T09:28:39.002Z,100578.41
2022-10-31T09:31:08.038Z,100596.69
2022-10-31T09:33:37.088Z,100596.72
2022-10-31T09:36:06.596Z,100584.59
2022-10-31T09:38:35.665Z,100597.63
2022-10-31T09:41:19.251Z,100604.66
2022-10-31T09:43:59.762Z,100601.19
2022-10-31T09:46:41.635Z,100602.06
2022-10-31T09:49:34.302Z,100595.16
2022-10-31T09:52:06.519Z,100588.25
2022-10-31T09:54:43.273Z,100562.22
2022-10-31T09:57:20.443Z,100606.56
2022-10-31T09:59:50.964Z,100617.03
2022-10-31T10:02:26.191Z,100568.38
2022-10-31T10:04:59.933Z,100610.09
2022-10-31T10:07:43.545Z,100589.25
2022-10-31T10:10:20.181Z,100612.75
2022-10-31T10:13:21.953Z,100606.69
2022-10-31T10:16:05.588Z,100589.28
2022-10-31T10:18:46.329Z,100602.38
2022-10-31T10:21:28.842Z,100610.19
2022-10-31T10:24:10.590Z,100600.63
2022-10-31T10:26:41.188Z,100615.44
2022-10-31T10:29:35.973Z,100601.50
2022-10-31T10:32:13.006Z,100620.66
2022-10-31T10:34:48.415Z,100608.50
2022-10-31T10:37:25.760Z,100605.88
2022-10-31T10:39:58.599Z,100613.69
2022-10-31T10:42:47.717Z,100605.84
2022-10-31T10:45:37.922Z,100613.66
2022-10-31T10:48:17.112Z,100617.16
2022-10-31T10:50:52.324Z,100615.38
2022-10-31T10:53:38.418Z,100614.50
2022-10-31T10:56:19.117Z,100584.94
2022-10-31T10:58:48.651Z,100625.81
2022-10-31T11:01:19.315Z,100616.25
2022-10-31T11:03:48.678Z,100605.78
2022-10-31T11:06:23.698Z,100625.81
2022-10-31T11:08:52.854Z,100624.94
2022-10-31T11:11:29.368Z,100604.94
2022-10-31T11:14:02.854Z,100618.84
2022-10-31T11:16:41.002Z,100621.44
2022-10-31T11:19:21.951Z,100619.72
2022-10-31T11:21:54.209Z,100631.00
2022-10-31T11:24:28.888Z,100619.72
2022-10-31T11:27:14.621Z,100610.13
2022-10-31T11:29:43.271Z,100628.38
2022-10-31T11:32:23.944Z,100626.63
2022-10-31T11:34:56.771Z,100610.13
2022-10-31T11:37:29.071Z,100630.09
2022-10-31T11:40:01.215Z,100618.78
2022-10-31T11:42:39.122Z,100637.03
2022-10-31T11:45:17.587Z,100604.00
2022-10-31T11:47:59.165Z,100628.34
2022-10-31T11:50:34.260Z,100605.69
2022-10-31T11:53:04.567Z,100633.53
2022-10-31T11:55:35.780Z,100637.84
2022-10-31T11:58:05.237Z,100641.31
2022-10-31T12:00:36.063Z,100618.69
2022-10-31T12:03:20.187Z,100634.34
2022-10-31T12:05:52.555Z,100621.25
2022-10-31T12:08:22.004Z,100628.22
2022-10-31T12:10:59.104Z,100635.16
2022-10-31T12:13:36.946Z,100635.13
2022-10-31T12:16:17.034Z,100593.38
2022-10-31T12:19:03.022Z,100615.09
2022-10-31T12:21:51.980Z,100632.56
2022-10-31T12:24:31.005Z,100617.78
2022-10-31T12:27:10.072Z,100647.38
2022-10-31T12:30:04.326Z,100619.56
2022-10-31T12:32:43.950Z,100643.97
2022-10-31T12:35:42.886Z,100613.53
2022-10-31T12:38:45.171Z,100628.34
2022-10-31T12:41:35.109Z,100648.38
2022-10-31T12:44:11.734Z,100637.94
2022-10-31T12:47:04.586Z,100653.63
2022-10-31T12:49:56.190Z,100592.72
2022-10-31T12:52:53.602Z,100470.13
2022-10-31T12:55:39.513Z,100615.38
2022-10-31T12:58:15.064Z,100639.75
2022-10-31T13:00:49.641Z,100664.97
2022-10-31T13:03:28.201Z,100648.47
2022-10-31T13:06:03.753Z,100470.19
2022-10-31T13:08:46.111Z,100522.38
2022-10-31T13:11:19.839Z,100643.22
2022-10-31T13:13:55.643Z,100644.09
2022-10-31T13:16:28.819Z,100633.66
2022-10-31T13:19:01.223Z,100575.41
2022-10-31T13:21:35.701Z,100612.81
2022-10-31T13:24:11.596Z,100646.72
2022-10-31T13:26:41.414Z,100644.09
2022-10-31T13:29:20.421Z,100644.09
2022-10-31T13:31:49.684Z,100649.34
2022-10-31T13:34:27.245Z,100643.25
2022-10-31T13:37:06.718Z,100635.44
2022-10-31T13:39:49.773Z,100560.66
2022-10-31T13:42:30.646Z,100648.47
2022-10-31T13:45:16.330Z,100437.25
2022-10-31T13:47:45.505Z,100638.91
2022-10-31T13:50:26.224Z,100634.56
2022-10-31T13:53:06.204Z,100630.19
2022-10-31T13:55:43.040Z,100627.59
2022-10-31T13:58:26.249Z,100574.56
2022-10-31T14:01:17.145Z,100631.06
2022-10-31T14:04:12.990Z,100630.22
2022-10-31T14:06:48.460Z,100634.53
2022-10-31T14:09:30.275Z,100624.13
2022-10-31T14:12:04.581Z,100631.94
2022-10-31T14:14:44.975Z,100626.75
2022-10-31T14:17:29.823Z,100637.16
2022-10-31T14:20:28.324Z,100636.28
2022-10-31T14:22:57.430Z,100633.69
2022-10-31T14:25:32.392Z,100636.31
2022-10-31T14:28:06.725Z,100605.88
2022-10-31T14:30:35.984Z,100613.69
2022-10-31T14:33:14.899Z,100638.91
2022-10-31T14:35:55.516Z,100613.69
2022-10-31T14:38:38.433Z,100638.00
2022-10-31T14:41:33.065Z,100639.75
2022-10-31T14:44:22.090Z,100643.25
2022-10-31T14:47:01.036Z,100635.41
2022-10-31T14:49:47.499Z,100632.78
2022-10-31T14:52:20.224Z,100644.97
2022-10-31T14:54:54.023Z,100637.16
2022-10-31T14:57:30.472Z,100555.38
2022-10-31T15:00:08.808Z,100644.97
2022-10-31T15:02:50.224Z,100564.09
2022-10-31T15:05:22.824Z,100647.63
2022-10-31T15:07:55.230Z,100611.09
2022-10-31T15:10:31.180Z,100659.78
2022-10-31T15:13:14.365Z,100665.84
2022-10-31T15:15:48.353Z,100563.28
2022-10-31T15:18:31.639Z,100668.47
2022-10-31T15:21:09.991Z,100647.56
2022-10-31T15:26:32.595Z,100573.69
2022-10-31T15:29:03.694Z,100611.94
2022-10-31T15:31:36.361Z,100640.59
2022-10-31T15:34:12.657Z,100612.78
2022-10-31T15:36:44.867Z,100641.44
2022-10-31T15:39:14.600Z,100625.78
2022-10-31T15:41:54.912Z,100648.38
2022-10-31T15:44:27.653Z,100618.81
2022-10-31T15:47:04.085Z,100633.59
2022-10-31T15:49:40.113Z,100647.50
2022-10-31T15:52:15.947Z,100590.13
2022-10-31T15:54:55.718Z,100626.63
2022-10-31T15:57:25.530Z,100653.56
2022-10-31T15:59:58.008Z,100625.75
2022-10-31T16:02:32.767Z,100645.72
2022-10-31T16:05:04.007Z,100637.88
2022-10-31T16:07:33.812Z,100622.22
2022-10-31T16:10:06.436Z,100639.63
2022-10-31T16:12:41.816Z,100625.72
2022-10-31T16:15:18.072Z,100645.69
2022-10-31T16:17:59.248Z,100603.16
2022-10-31T16:20:36.549Z,100548.41
2022-10-31T16:23:32.848Z,100529.28
2022-10-31T16:26:13.483Z,100643.97
2022-10-31T16:28:53.431Z,100612.72
2022-10-31T16:31:32.650Z,100654.41
2022-10-31T16:34:26.367Z,100621.38
2022-10-31T16:36:56.547Z,100648.31
2022-10-31T16:39:25.828Z,100660.47
2022-10-31T16:41:58.918Z,100621.34
2022-10-31T16:44:31.285Z,100621.38
2022-10-31T16:47:18.189Z,100652.66
2022-10-31T16:49:51.645Z,100642.25
2022-10-31T16:52:21.011Z,100600.47
2022-10-31T16:54:54.417Z,100640.50
2022-10-31T16:57:29.035Z,100661.31
2022-10-31T17:00:00.422Z,100634.38
2022-10-31T17:02:32.102Z,100657.00
2022-10-31T17:05:07.414Z,100657.03
2022-10-31T17:07:36.603Z,100662.28
2022-10-31T17:10:06.318Z,100691.84
2022-10-31T17:12:35.935Z,100687.50
2022-10-31T17:15:05.759Z,100670.13
2022-10-31T17:17:34.899Z,100671.84
2022-10-31T17:20:17.646Z,100677.97
2022-10-31T17:22:46.694Z,100669.25
2022-10-31T17:25:19.171Z,100664.91
2022-10-31T17:27:48.768Z,100679.69
2022-10-31T17:30:19.116Z,100665.78
2022-10-31T17:32:49.439Z,100565.81
2022-10-31T17:35:20.917Z,100644.97
2022-10-31T17:37:50.464Z,100668.41
2022-10-31T17:40:22.206Z,100596.25
2022-10-31T17:42:52.319Z,100610.19
2022-10-31T17:45:22.069Z,100647.56
2022-10-31T17:47:51.782Z,100697.13
2022-10-31T17:50:24.231Z,100678.00
2022-10-31T17:52:53.622Z,100576.31
2022-10-31T17:55:22.982Z,100525.88
2022-10-31T17:57:52.136Z,100655.34
2022-10-31T18:00:24.467Z,100672.75
2022-10-31T18:02:53.794Z,100638.84
2022-10-31T18:05:24.370Z,100667.56
2022-10-31T18:07:53.550Z,100607.56
2022-10-31T18:10:22.715Z,100685.81
2022-10-31T18:12:51.754Z,100687.53
2022-10-31T18:15:20.982Z,100566.75
2022-10-31T18:17:50.118Z,100596.31
2022-10-31T18:20:19.366Z,100695.38
2022-10-31T18:22:50.135Z,100647.56
2022-10-31T18:25:19.409Z,100644.09
2022-10-31T18:27:48.595Z,100597.13
2022-10-31T18:30:19.161Z,100684.03
2022-10-31T18:32:51.451Z,100694.50
2022-10-31T18:35:21.016Z,100627.59
2022-10-31T18:37:51.740Z,100667.53
2022-10-31T18:40:20.852Z,100617.13
2022-10-31T18:42:50.046Z,100696.28
2022-10-31T18:45:32.485Z,100605.84
2022-10-31T18:48:08.852Z,100718.84
2022-10-31T18:50:41.365Z,100611.00
2022-10-31T18:53:12.161Z,100701.44
2022-10-31T18:55:45.451Z,100696.19
2022-10-31T18:58:18.715Z,100708.41
2022-10-31T19:00:47.988Z,100714.50
2022-10-31T19:03:19.700Z,100710.13
2022-10-31T19:05:52.690Z,100630.16
2022-10-31T19:08:23.396Z,100536.34
2022-10-31T19:10:52.542Z,100647.56
2022-10-31T19:13:21.660Z,100621.50
2022-10-31T19:15:51.017Z,100724.94
2022-10-31T19:18:20.133Z,100704.09
2022-10-31T19:20:49.223Z,100685.81
2022-10-31T19:23:18.336Z,100623.22
2022-10-31T19:25:48.927Z,100703.19
2022-10-31T19:28:18.038Z,100647.56
2022-10-31T19:30:55.197Z,100732.75
2022-10-31T19:33:29.593Z,100641.47
2022-10-31T19:36:02.913Z,100620.59
2022-10-31T19:38:32.353Z,100731.91
2022-10-31T19:41:05.247Z,100719.72
2022-10-31T19:43:34.515Z,100731.03
2022-10-31T19:46:05.408Z,100692.75
2022-10-31T19:48:37.263Z,100741.50
2022-10-31T19:51:08.311Z,100661.50
2022-10-31T19:53:38.629Z,100740.63
2022-10-31T19:56:13.736Z,100738.88
2022-10-31T19:58:43.314Z,100684.09
2022-10-31T20:01:13.551Z,100738.88
2022-10-31T20:03:44.360Z,100655.38
2022-10-31T20:06:18.421Z,100629.31
2022-10-31T20:08:47.493Z,100758.91
2022-10-31T20:11:18.600Z,100677.16
2022-10-31T20:13:47.709Z,100666.72
2022-10-31T20:16:18.281Z,100759.75
2022-10-31T20:18:48.448Z,100725.81
2022-10-31T20:21:19.339Z,100761.47
2022-10-31T20:23:48.930Z,100755.34
2022-10-31T20:26:21.277Z,100720.56
2022-10-31T20:28:50.542Z,100757.09
2022-10-31T20:31:21.590Z,100671.84
2022-10-31T20:33:51.291Z,100687.53
2022-10-31T20:36:21.551Z,100658.84
2022-10-31T20:38:51.388Z,100731.03
2022-10-31T20:41:22.026Z,100769.28
2022-10-31T20:43:51.119Z,100638.88
2022-10-31T20:46:22.202Z,100753.66
2022-10-31T20:48:52.162Z,100791.94
2022-10-31T20:51:22.909Z,100684.97
2022-10-31T20:53:52.514Z,100703.22
2022-10-31T20:56:24.895Z,100754.53
2022-10-31T20:58:55.357Z,100795.41
2022-10-31T21:01:26.311Z,100571.06
2022-10-31T21:03:55.755Z,100712.78
2022-10-31T21:06:25.138Z,100741.50
2022-10-31T21:08:54.662Z,100641.50
2022-10-31T21:11:27.571Z,100802.38
2022-10-31T21:13:57.223Z,100664.03
2022-10-31T21:16:28.976Z,100780.53
2022-10-31T21:18:58.757Z,100791.00
2022-10-31T21:21:32.368Z,100654.50
2022-10-31T21:24:03.495Z,100707.53
2022-10-31T21:26:37.520Z,100642.31
2022-10-31T21:29:07.593Z,100800.56
2022-10-31T21:31:38.459Z,100807.53
2022-10-31T21:34:46.183Z,100704.03
2022-10-31T21:37:30.639Z,100738.00
2022-10-31T21:40:00.098Z,100817.09
2022-10-31T21:42:43.261Z,100770.09
2022-10-31T21:45:12.575Z,100634.47
2022-10-31T21:47:45.753Z,100796.22
2022-10-31T21:50:25.472Z,100833.69
2022-10-31T21:52:54.765Z,100722.34
2022-10-31T21:55:22.785Z,100831.97
2022-10-31T21:57:53.471Z,100833.69
2022-10-31T22:00:22.688Z,100749.28
2022-10-31T22:02:51.856Z,100839.78
2022-10-31T22:05:20.955Z,100764.97
2022-10-31T22:07:50.027Z,100725.78
2022-10-31T22:10:19.216Z,100816.28
2022-10-31T22:12:48.389Z,100845.84
2022-10-31T22:15:23.175Z,100738.00
2022-10-31T22:17:52.387Z,100743.19
2022-10-31T22:20:24.964Z,100847.59
2022-10-31T22:22:54.069Z,100850.22
2022-10-31T22:25:23.290Z,100750.19
2022-10-31T22:27:54.341Z,100862.44
2022-10-31T22:30:24.987Z,100872.91
2022-10-31T22:32:54.367Z,100788.50
2022-10-31T22:35:23.559Z,100771.94
2022-10-31T22:37:52.697Z,100870.31
2022-10-31T22:40:21.858Z,100872.88
2022-10-31T22:42:51.011Z,100875.50
2022-10-31T22:45:21.161Z,100733.72
2022-10-31T22:47:51.843Z,100830.25
2022-10-31T22:50:20.985Z,100884.25
2022-10-31T22:52:50.239Z,100898.19
2022-10-31T22:55:19.445Z,100780.66
2022-10-31T22:57:48.573Z,100798.94
2022-10-31T23:00:18.935Z,100879.91
2022-10-31T23:02:48.036Z,100888.59
2022-10-31T23:05:18.797Z,100798.09
2022-10-31T23:07:47.934Z,100887.72
2022-10-31T23:10:17.205Z,100824.19
2022-10-31T23:13:03.364Z,100861.66
2022-10-31T23:15:32.554Z,100812.88
2022-10-31T23:18:01.913Z,100899.03
2022-10-31T23:20:32.824Z,100734.59
2022-10-31T23:23:02.366Z,100892.94
2022-10-31T23:25:48.542Z,100821.56
2022-10-31T23:28:17.705Z,100898.16
2022-10-31T23:30:48.117Z,100901.63
2022-10-31T23:33:17.248Z,100837.25
2022-10-31T23:35:48.113Z,100901.66
2022-10-31T23:38:17.537Z,100901.66
2022-10-31T23:40:46.916Z,100911.25
2022-10-31T23:43:16.498Z,100918.22
2022-10-31T23:45:46.129Z,100917.34
2022-10-31T23:48:15.256Z,100866.00
2022-10-31T23:50:44.412Z,100809.44
2022-10-31T23:53:15.044Z,100896.47
2022-10-31T23:55:44.173Z,100916.50
2022-10-31T23:58:13.309Z,100806.81
